CheckWX is a tool to help pilots better visualize weather data.  It is not intended as a substitute for an official pre-flight weather briefing.

05:18:58 UTC

KCKV TAF
Outlaw Field Airport
Clarksville, Tennessee, USA
KCKV 200337Z 2004/2024 08012KT 6SM -RA SCT006 BKN045 OVC060 TEMPO 2004/2006 4SM -RA OVC006 FM200600 08012KT 4SM -RA OVC006 FM201700 15008KT 4SM -RA OVC006 FM202300 23007KT P6SM OVC035

Feb-20@
04:00 UTC

Feb-20 @ 04:00 UTC

Feb-20@
06:00 UTC

Feb-20 @ 06:00 UTC

KCKV 200337Z 2004/2024 08012KT 6SM -RA SCT006 BKN045 OVC060
Wind
  • 080° at 12 KTS
Visibility
9,656 meters
Conditions
Light Rain
Cloud Levels
  • Scattered at 600' AGL
  • Broken at 4,500' AGL
  • Overcast at 6,000' AGL

Feb-20@
04:00 UTC

Feb-20 @ 04:00 UTC

Feb-20@
06:00 UTC

Feb-20 @ 06:00 UTC

TEMPO 2004/2006 4SM -RA OVC006

Temporary

TemporaryChanges expected for less than half the time period

Visibility
6,437 meters
Conditions
Light Rain
Cloud Levels
  • Overcast at 600' AGL

Feb-20@
06:00 UTC

Feb-20 @ 06:00 UTC

Feb-20@
17:00 UTC

Feb-20 @ 17:00 UTC

FM200600 08012KT 4SM -RA OVC006

From

FromStandard forecast or significant change

Wind
  • 080° at 12 KTS
Visibility
6,437 meters
Conditions
Light Rain
Cloud Levels
  • Overcast at 600' AGL

Feb-20@
17:00 UTC

Feb-20 @ 17:00 UTC

Feb-20@
23:00 UTC

Feb-20 @ 23:00 UTC

FM201700 15008KT 4SM -RA OVC006

From

FromStandard forecast or significant change

Wind
  • 150° at 8 KTS
Visibility
6,437 meters
Conditions
Light Rain
Cloud Levels
  • Overcast at 600' AGL

Feb-20@
23:00 UTC

Feb-20 @ 23:00 UTC

Feb-21@
00:00 UTC

Feb-21 @ 00:00 UTC

FM202300 23007KT P6SM OVC035

From

FromStandard forecast or significant change

Wind
  • 230° at 7 KTS
Visibility
10,000+ meters
Cloud Levels
  • Overcast at 3,500' AGL